Airfield :
LOGIN :

Register | Disclaimer

   EN    FR    IT 

 










Legend :    VFR   Marginal VFR   IFR   Intensive IFR   Very Intensive IFR
Visi :
Ceiling :
>= 8 km
>= 3000ft
5 to 8 km
1000 to 3000 ft
1500m to 5 km
500 to 1000 ft
800 to 1500m
200 to 500 ft
< 800m
< 200 ft
Symbols :   Thunderstorms  Fog  Heavy snow  Heavy precipitations  Wind > 20 kt
SIGMETs :     Misc.  Thunderstorms  Icing  Turbulence  Mountain Waves  Volcanic Ashes






- Airport Elevation : 856 ft
- IATA code : VGO


LEVX - Vigo Peinador

CURRENT METAR :
  • 211030Z 36012KT CAVOK 19/12 Q1020 NOSIG

EXPIRED METARs :
  • 211000Z 04007KT 330V110 CAVOK 19/12 Q1020 NOSIG
  • 210930Z 04008KT 360V090 CAVOK 18/11 Q1020 NOSIG
  • 210900Z 02007KT 340V090 CAVOK 18/12 Q1020 NOSIG
  • 210830Z 06005KT 330V100 CAVOK 17/12 Q1020 NOSIG
  • 210800Z 06006KT 010V130 CAVOK 16/11 Q1020 NOSIG
  • 210730Z 05004KT 340V100 CAVOK 15/11 Q1019 NOSIG
  • 210700Z 03006KT 350V090 CAVOK 15/11 Q1019 NOSIG
  • 210630Z 03006KT 350V080 CAVOK 14/10 Q1019 NOSIG
  • 210600Z 02008KT CAVOK 13/09 Q1018 NOSIG

TAF TAF LEVX
Valid from the 21 at 06:00 until the 22 at 06:00 UTC


210500Z 2106/2206 36009KT 9999 SCT020 TX27/2115Z TN11/2106Z



MET'MAP, your aeronautical weather chart ! - Copyright ORBIFLY December 2007 - Disclaimer

ORBIFLY MET'MAP TEAM :

Programming & Development : Alexandra Zaïnal
Original concept : Baudouin d'Aumeries
Technical & hardware support : Manuel Goepfert
Assistance : Marc-Olivier Méhu




SOURCES & CREDITS :

   NOAA